Time;durP1;ratioP1;P1;durP2;ratioP2;P2;SDS_P1;SDS_P2;PMS_P1;PMS_P2;Temp;Humidity;BMP_temperature;BMP_pressure;BME280_temperature;BME280_humidity;BME280_pressure;Samples;Min_cycle;Max_cycle;Signal;HPM_P1;HPM_P2
2021/01/11 00:03:08;;;;;;;1.45;1.35;;;15.30;52.60;;;;;;5747746;22;20072;-39
2021/01/11 00:05:33;;;;;;;1.63;1.50;;;15.30;53.20;;;;;;4994337;28;20123;-39
2021/01/11 00:07:59;;;;;;;1.80;1.50;;;15.30;53.20;;;;;;4994200;28;20640;-39
2021/01/11 00:10:24;;;;;;;1.90;1.40;;;15.30;53.20;;;;;;4994261;28;20041;-39
2021/01/11 00:12:50;;;;;;;3.50;1.23;;;15.30;53.30;;;;;;4994075;28;20077;-39
2021/01/11 00:15:16;;;;;;;1.42;1.33;;;15.30;53.40;;;;;;4993856;28;20090;-39
2021/01/11 00:17:42;;;;;;;2.28;1.58;;;15.20;53.30;;;;;;4994247;28;20041;-39
2021/01/11 00:20:09;;;;;;;1.77;1.67;;;15.20;53.40;;;;;;4994124;28;20034;-40
2021/01/11 00:22:35;;;;;;;1.65;1.55;;;15.20;53.40;;;;;;4993763;28;20050;-39
2021/01/11 00:25:02;;;;;;;3.00;2.15;;;15.20;53.50;;;;;;4993942;28;20027;-39
2021/01/11 00:27:28;;;;;;;1.83;1.73;;;15.20;53.50;;;;;;4993720;28;20030;-39
2021/01/11 00:29:53;;;;;;;1.70;1.60;;;15.20;53.60;;;;;;4993310;28;20026;-39
2021/01/11 00:32:19;;;;;;;1.50;1.40;;;15.20;53.60;;;;;;4993768;28;20031;-39
2021/01/11 00:34:44;;;;;;;1.60;1.30;;;15.10;53.60;;;;;;4993466;28;20038;-39
2021/01/11 00:37:10;;;;;;;2.20;1.80;;;15.10;53.70;;;;;;4993658;28;20032;-39
2021/01/11 00:39:36;;;;;;;1.83;1.65;;;15.10;53.70;;;;;;4992996;28;20030;-40
2021/01/11 00:42:02;;;;;;;1.42;1.33;;;15.10;53.70;;;;;;4993498;28;20503;-40
2021/01/11 00:44:28;;;;;;;1.80;1.70;;;15.10;53.70;;;;;;4993398;28;20054;-39
2021/01/11 00:47:02;;;;;;;1.63;1.45;;;15.00;53.70;;;;;;4993433;28;20046;-39
2021/01/11 00:49:28;;;;;;;2.25;1.95;;;15.00;53.70;;;;;;4993389;28;20499;-39
2021/01/11 00:51:53;;;;;;;1.73;1.60;;;15.00;53.80;;;;;;4992579;28;20042;-39
2021/01/11 00:54:20;;;;;;;1.70;1.50;;;15.00;53.80;;;;;;4993434;28;20106;-39
2021/01/11 00:56:47;;;;;;;2.03;1.50;;;15.00;53.90;;;;;;4993575;28;20409;-39
2021/01/11 00:59:13;;;;;;;1.75;1.40;;;15.00;53.90;;;;;;4993324;28;20082;-39
2021/01/11 01:01:49;;;;;;;1.65;1.48;;;15.00;53.90;;;;;;4993253;28;20486;-39
2021/01/11 01:04:15;;;;;;;1.85;1.60;;;14.90;53.90;;;;;;4993945;28;20051;-39
2021/01/11 01:06:41;;;;;;;2.15;1.80;;;14.90;53.90;;;;;;4993381;28;20488;-40
2021/01/11 01:09:06;;;;;;;1.92;1.73;;;14.90;54.00;;;;;;4992992;28;20025;-39
2021/01/11 01:11:32;;;;;;;2.13;1.88;;;14.80;54.00;;;;;;4992381;28;20031;-39
2021/01/11 01:13:57;;;;;;;2.03;1.83;;;14.90;54.10;;;;;;4993002;28;20511;-39
2021/01/11 01:16:26;;;;;;;2.08;1.95;;;14.90;54.10;;;;;;4993042;28;20037;-39
2021/01/11 01:18:52;;;;;;;2.08;1.73;;;14.80;54.10;;;;;;4993180;28;20030;-39
2021/01/11 01:21:18;;;;;;;1.70;1.60;;;14.80;54.10;;;;;;4993015;28;20037;-39
2021/01/11 01:23:43;;;;;;;1.83;1.73;;;14.90;54.20;;;;;;4993065;28;20030;-40
2021/01/11 01:26:09;;;;;;;2.50;2.20;;;14.80;54.20;;;;;;4993000;28;20425;-39
2021/01/11 01:28:34;;;;;;;2.85;1.83;;;14.80;54.20;;;;;;4992168;28;20030;-39
2021/01/11 01:31:00;;;;;;;2.33;2.13;;;14.80;54.30;;;;;;4992843;28;20053;-39
2021/01/11 01:33:26;;;;;;;1.75;1.65;;;14.80;54.20;;;;;;4992829;28;20058;-39
2021/01/11 01:35:51;;;;;;;1.83;1.60;;;14.80;54.30;;;;;;4992930;28;20038;-39
2021/01/11 01:38:17;;;;;;;1.95;1.75;;;14.80;54.30;;;;;;4992838;28;20077;-40
2021/01/11 01:40:45;;;;;;;1.92;1.80;;;14.80;54.40;;;;;;4992866;28;20162;-39
2021/01/11 01:43:11;;;;;;;2.03;1.92;;;14.80;54.40;;;;;;4992768;28;20082;-39
2021/01/11 01:45:37;;;;;;;1.75;1.65;;;14.70;54.40;;;;;;4992772;28;20109;-39
2021/01/11 01:48:04;;;;;;;1.73;1.63;;;14.70;54.40;;;;;;4992864;28;20102;-39
2021/01/11 01:50:29;;;;;;;1.80;1.70;;;14.70;54.50;;;;;;4976367;28;20030;-40
2021/01/11 01:52:55;;;;;;;1.88;1.70;;;14.70;54.50;;;;;;4996897;28;20025;-39
2021/01/11 01:55:21;;;;;;;2.17;1.98;;;14.70;54.50;;;;;;4996812;28;20510;-39
2021/01/11 01:57:48;;;;;;;2.53;2.13;;;14.70;54.50;;;;;;4996535;28;20498;-39
2021/01/11 02:00:16;;;;;;;3.80;2.15;;;14.70;54.50;;;;;;4996344;28;20049;-39
2021/01/11 02:02:42;;;;;;;2.85;2.47;;;14.60;54.50;;;;;;4996648;28;20619;-39
2021/01/11 02:05:08;;;;;;;2.33;2.13;;;14.60;54.50;;;;;;4996268;28;20104;-40
2021/01/11 02:07:36;;;;;;;4.43;2.15;;;14.60;54.60;;;;;;4996284;28;20038;-44
2021/01/11 02:10:19;;;;;;;1.98;1.88;;;14.60;54.60;;;;;;4996334;28;20030;-40
2021/01/11 02:13:03;;;;;;;2.75;2.20;;;14.60;54.60;;;;;;4995667;28;20053;-40
2021/01/11 02:15:42;;;;;;;3.50;1.98;;;14.60;54.70;;;;;;4996308;28;20526;-40
2021/01/11 02:18:13;;;;;;;2.40;2.20;;;14.50;54.60;;;;;;4996130;28;20022;-39
2021/01/11 02:21:08;;;;;;;2.65;2.20;;;14.60;54.70;;;;;;4996377;28;20382;-40
2021/01/11 02:23:52;;;;;;;3.47;2.53;;;14.50;54.70;;;;;;4996128;28;20669;-39
2021/01/11 02:27:00;;;;;;;3.25;2.60;;;14.50;54.80;;;;;;4995999;28;20109;-40
2021/01/11 02:29:56;;;;;;;2.40;2.17;;;14.50;54.70;;;;;;4995851;28;20030;-39
2021/01/11 02:32:23;;;;;;;2.42;2.22;;;14.50;54.80;;;;;;4995890;28;20064;-39
2021/01/11 02:34:50;;;;;;;3.13;2.45;;;14.50;54.80;;;;;;4995892;28;20101;-39
2021/01/11 02:37:16;;;;;;;2.85;2.50;;;14.50;54.90;;;;;;4995794;28;20023;-39
2021/01/11 02:39:43;;;;;;;3.83;2.67;;;14.50;54.80;;;;;;4995869;28;20035;-39
2021/01/11 02:42:08;;;;;;;2.08;1.88;;;14.50;54.90;;;;;;4995966;28;20428;-39
2021/01/11 02:44:34;;;;;;;2.60;2.28;;;14.50;54.90;;;;;;4995595;28;20074;-40
2021/01/11 02:46:59;;;;;;;2.92;2.42;;;14.40;54.90;;;;;;4995698;28;20540;-39
2021/01/11 02:49:31;;;;;;;2.70;2.42;;;14.50;55.00;;;;;;4995638;28;20392;-39
2021/01/11 02:52:16;;;;;;;2.83;2.50;;;14.50;55.00;;;;;;4994781;28;20030;-39
2021/01/11 02:54:50;;;;;;;2.47;2.08;;;14.40;54.90;;;;;;4995467;28;20477;-39
2021/01/11 02:57:26;;;;;;;3.28;2.97;;;14.40;54.90;;;;;;4995525;28;20030;-39
2021/01/11 02:59:57;;;;;;;3.35;2.53;;;14.40;55.00;;;;;;4995769;28;20029;-39
2021/01/11 03:02:25;;;;;;;3.22;2.50;;;14.40;55.00;;;;;;4994813;28;20118;-39
2021/01/11 03:04:51;;;;;;;3.00;2.72;;;14.40;55.10;;;;;;4996110;28;20047;-39
2021/01/11 03:07:17;;;;;;;2.65;2.45;;;14.40;55.10;;;;;;4995394;28;20026;-39
2021/01/11 03:09:43;;;;;;;3.30;2.88;;;14.30;55.00;;;;;;4977775;28;20088;-39
2021/01/11 03:12:10;;;;;;;3.42;2.88;;;14.30;55.10;;;;;;4995184;28;20500;-39
2021/01/11 03:14:37;;;;;;;4.60;3.22;;;14.30;55.10;;;;;;4995364;28;20417;-39
2021/01/11 03:17:03;;;;;;;3.65;2.75;;;14.30;55.10;;;;;;4995157;28;20071;-39
2021/01/11 03:19:29;;;;;;;3.55;2.88;;;14.30;55.10;;;;;;4995380;28;20121;-39
2021/01/11 03:21:54;;;;;;;3.08;2.65;;;14.30;55.10;;;;;;4994986;28;20022;-39
2021/01/11 03:24:21;;;;;;;4.18;3.15;;;14.30;55.10;;;;;;4994938;28;20030;-39
2021/01/11 03:26:48;;;;;;;3.55;3.10;;;14.30;55.20;;;;;;4995194;28;20369;-40
2021/01/11 03:29:14;;;;;;;4.25;3.13;;;14.30;55.20;;;;;;4993865;28;20052;-40
2021/01/11 03:31:41;;;;;;;4.47;2.75;;;14.30;55.30;;;;;;4993668;28;20030;-39
2021/01/11 03:34:10;;;;;;;3.30;2.97;;;14.20;55.20;;;;;;4994351;28;20041;-39
2021/01/11 03:36:40;;;;;;;3.83;3.13;;;14.20;55.20;;;;;;4993942;28;20109;-39
2021/01/11 03:39:07;;;;;;;3.60;3.30;;;14.20;55.30;;;;;;4994935;28;20491;-40
2021/01/11 03:41:34;;;;;;;3.67;3.38;;;14.20;55.90;;;;;;4994676;28;20030;-39
2021/01/11 03:43:59;;;;;;;3.50;2.83;;;14.20;55.30;;;;;;4994601;28;20030;-39
2021/01/11 03:46:25;;;;;;;3.63;3.15;;;14.20;55.30;;;;;;4994557;28;20026;-39
2021/01/11 03:48:50;;;;;;;4.03;3.20;;;14.20;55.30;;;;;;4994609;28;20400;-40
2021/01/11 03:51:16;;;;;;;3.90;3.50;;;14.20;55.40;;;;;;4994456;28;20384;-39
2021/01/11 03:53:45;;;;;;;4.35;3.47;;;14.20;55.40;;;;;;4994605;28;20038;-39
2021/01/11 03:56:11;;;;;;;4.45;3.40;;;14.10;55.40;;;;;;4994378;28;20503;-39
2021/01/11 03:58:36;;;;;;;3.88;3.47;;;14.10;55.40;;;;;;4994338;28;20038;-39
2021/01/11 04:01:03;;;;;;;3.78;3.22;;;14.20;55.50;;;;;;4994305;28;20049;-39
2021/01/11 04:03:29;;;;;;;4.32;3.42;;;14.10;55.50;;;;;;4994903;28;20042;-39
2021/01/11 04:05:56;;;;;;;4.82;3.92;;;14.10;55.50;;;;;;4994253;28;20026;-39
2021/01/11 04:08:22;;;;;;;4.88;3.42;;;14.10;55.50;;;;;;4994155;28;20425;-39
2021/01/11 04:10:48;;;;;;;4.53;3.45;;;14.10;55.60;;;;;;4994038;28;20400;-44
2021/01/11 04:13:13;;;;;;;5.93;4.00;;;14.10;55.60;;;;;;4993698;28;20027;-39
2021/01/11 04:15:39;;;;;;;5.05;3.65;;;14.10;55.60;;;;;;4992523;28;20033;-39
2021/01/11 04:18:05;;;;;;;5.15;3.75;;;14.10;55.60;;;;;;4993966;28;20031;-39
2021/01/11 04:20:31;;;;;;;4.75;3.72;;;14.10;55.60;;;;;;4993913;28;20034;-39
2021/01/11 04:22:57;;;;;;;4.22;3.40;;;14.10;55.60;;;;;;4993827;28;20057;-40
2021/01/11 04:25:24;;;;;;;4.18;3.78;;;14.10;55.70;;;;;;4993801;28;20516;-39
2021/01/11 04:27:50;;;;;;;3.80;3.40;;;14.10;55.70;;;;;;4994082;28;20018;-39
2021/01/11 04:30:17;;;;;;;4.88;3.80;;;14.10;55.70;;;;;;4993965;28;20484;-39
2021/01/11 04:32:42;;;;;;;4.57;3.67;;;14.00;55.70;;;;;;4993773;28;20445;-39
2021/01/11 04:35:09;;;;;;;5.85;4.20;;;14.00;55.70;;;;;;4993645;28;20030;-39
2021/01/11 04:37:37;;;;;;;4.93;3.65;;;14.00;55.70;;;;;;4993678;28;20093;-40
2021/01/11 04:40:04;;;;;;;4.45;3.58;;;14.00;55.80;;;;;;4993595;28;20476;-39
2021/01/11 04:42:46;;;;;;;4.65;3.65;;;14.00;55.80;;;;;;4993782;28;20030;-39
2021/01/11 04:45:15;;;;;;;4.30;3.50;;;14.00;55.80;;;;;;4993474;28;20033;-40
2021/01/11 04:47:41;;;;;;;5.15;3.80;;;14.00;55.80;;;;;;4993732;28;20018;-39
2021/01/11 04:50:08;;;;;;;5.22;4.00;;;14.00;55.90;;;;;;4993456;28;20033;-39
2021/01/11 04:52:34;;;;;;;4.32;3.70;;;14.00;55.90;;;;;;4993266;28;20699;-39
2021/01/11 04:55:06;;;;;;;3.80;3.35;;;14.00;55.90;;;;;;4993297;28;20045;-39
2021/01/11 04:57:36;;;;;;;4.03;3.63;;;13.90;55.80;;;;;;4993275;28;20030;-39
2021/01/11 05:00:08;;;;;;;4.32;3.55;;;13.90;55.90;;;;;;4993589;28;20144;-39
2021/01/11 05:02:43;;;;;;;4.13;3.45;;;13.90;55.90;;;;;;4993006;28;20105;-39
2021/01/11 05:05:10;;;;;;;5.15;3.95;;;13.90;55.90;;;;;;4993951;28;20109;-39
2021/01/11 05:07:35;;;;;;;4.63;3.88;;;13.90;55.90;;;;;;4993148;28;20472;-39
2021/01/11 05:10:01;;;;;;;5.25;3.67;;;13.90;55.90;;;;;;4993048;28;20032;-39
2021/01/11 05:12:27;;;;;;;4.93;3.65;;;13.90;56.00;;;;;;4993046;28;20026;-39
2021/01/11 05:15:18;;;;;;;4.55;3.88;;;13.90;56.00;;;;;;4993048;28;20058;-39
2021/01/11 05:17:45;;;;;;;4.32;3.92;;;13.90;56.00;;;;;;4993059;28;20030;-39
2021/01/11 05:20:15;;;;;;;4.03;3.63;;;13.80;56.00;;;;;;4992918;28;20061;-39
2021/01/11 05:22:48;;;;;;;4.50;3.97;;;13.90;56.10;;;;;;4993105;28;20377;-39
2021/01/11 05:25:19;;;;;;;4.00;3.28;;;13.90;56.10;;;;;;4992670;28;20556;-39
2021/01/11 05:27:47;;;;;;;4.47;3.40;;;13.80;56.10;;;;;;4993126;28;20070;-39
2021/01/11 05:30:22;;;;;;;5.00;4.00;;;13.90;56.20;;;;;;4992876;28;20030;-39
2021/01/11 05:32:47;;;;;;;4.75;3.50;;;13.90;56.30;;;;;;4992873;28;20026;-39
2021/01/11 05:35:24;;;;;;;4.88;3.58;;;13.80;56.20;;;;;;4992770;28;20101;-39
2021/01/11 05:37:54;;;;;;;4.13;3.63;;;13.90;56.30;;;;;;4992982;28;20022;-39
2021/01/11 05:40:23;;;;;;;4.43;3.45;;;13.90;56.30;;;;;;4993120;28;20505;-39
2021/01/11 05:42:57;;;;;;;3.17;2.85;;;13.90;56.40;;;;;;4993108;28;20019;-39
2021/01/11 05:45:28;;;;;;;5.63;3.85;;;13.90;56.50;;;;;;4993058;28;20045;-40
2021/01/11 05:48:08;;;;;;;4.90;3.40;;;13.90;56.70;;;;;;4993067;28;20428;-39
2021/01/11 05:50:35;;;;;;;4.63;3.90;;;13.90;56.70;;;;;;4993122;28;20034;-39
2021/01/11 05:53:01;;;;;;;5.15;3.78;;;13.90;56.60;;;;;;4992719;28;20029;-39
2021/01/11 05:55:31;;;;;;;4.45;3.88;;;13.90;56.60;;;;;;4992707;28;20026;-40
2021/01/11 05:58:03;;;;;;;3.72;3.42;;;13.90;56.70;;;;;;4993054;28;20412;-39
2021/01/11 06:00:31;;;;;;;5.55;3.88;;;13.90;56.80;;;;;;4993139;28;20027;-39
2021/01/11 06:02:58;;;;;;;4.35;3.42;;;13.90;56.80;;;;;;4992801;28;20481;-39
2021/01/11 06:05:25;;;;;;;5.55;3.88;;;13.90;56.90;;;;;;4993341;28;20080;-39
2021/01/11 06:07:51;;;;;;;3.45;3.15;;;14.00;57.20;;;;;;4992893;28;20049;-39
2021/01/11 06:10:18;;;;;;;4.10;3.30;;;14.00;57.40;;;;;;4992866;28;20102;-39
2021/01/11 06:12:46;;;;;;;3.33;3.03;;;14.10;57.20;;;;;;4992835;28;20034;-39
2021/01/11 06:15:18;;;;;;;3.08;2.35;;;14.20;57.30;;;;;;4992698;28;20045;-39
2021/01/11 06:17:46;;;;;;;4.22;3.28;;;14.30;57.30;;;;;;4992567;28;20037;-39
2021/01/11 06:20:19;;;;;;;2.97;2.67;;;14.40;57.10;;;;;;4992558;28;20055;-39
2021/01/11 06:22:44;;;;;;;3.70;2.55;;;14.50;57.00;;;;;;4992413;28;20057;-39
2021/01/11 06:25:19;;;;;;;3.63;2.90;;;14.60;56.90;;;;;;4992468;28;20481;-39
2021/01/11 06:27:55;;;;;;;3.22;2.85;;;14.70;56.80;;;;;;4992479;28;20469;-39
2021/01/11 06:30:38;;;;;;;4.18;2.75;;;14.70;56.80;;;;;;4992386;28;20101;-39
2021/01/11 06:33:17;;;;;;;2.80;2.50;;;14.80;56.80;;;;;;4992383;28;20031;-39
2021/01/11 06:35:48;;;;;;;4.00;2.67;;;14.80;56.70;;;;;;4992538;28;20038;-39
2021/01/11 06:38:28;;;;;;;3.80;3.00;;;14.80;56.60;;;;;;4994649;28;20034;-40
2021/01/11 06:41:09;;;;;;;;;;;14.80;56.40;;;;;;4996234;28;20031;-39
2021/01/11 06:43:37;;;;;;;;;;;14.80;56.50;;;;;;4996414;28;20245;-39
2021/01/11 06:46:03;;;;;;;2.88;2.58;;;14.90;56.50;;;;;;4995657;28;20044;-39
2021/01/11 06:48:33;;;;;;;2.60;2.40;;;14.80;56.40;;;;;;4995607;28;20058;-39
2021/01/11 06:51:09;;;;;;;2.70;2.42;;;14.90;56.40;;;;;;4995917;28;20038;-39
2021/01/11 06:53:35;;;;;;;3.17;2.88;;;14.90;56.30;;;;;;4995826;28;20026;-39
2021/01/11 06:56:11;;;;;;;2.63;2.40;;;14.90;56.30;;;;;;4995425;28;20438;-39
2021/01/11 06:58:39;;;;;;;2.78;2.53;;;15.00;56.30;;;;;;4995697;28;20041;-38
2021/01/11 07:01:05;;;;;;;3.58;2.83;;;15.00;56.20;;;;;;4995465;28;20022;-38
2021/01/11 07:03:49;;;;;;;5.85;2.78;;;15.00;56.20;;;;;;4996126;28;20121;-39
2021/01/11 07:06:40;;;;;;;3.20;2.78;;;15.10;56.30;;;;;;4995578;28;20053;-39
2021/01/11 07:09:19;;;;;;;9.38;3.00;;;15.10;56.20;;;;;;4994795;28;20164;-40
2021/01/11 07:11:50;;;;;;;5.15;2.53;;;15.10;56.50;;;;;;4994871;28;20074;-39
2021/01/11 07:14:21;;;;;;;4.65;2.55;;;15.20;56.40;;;;;;5012638;28;20506;-39
2021/01/11 07:16:52;;;;;;;6.82;2.50;;;15.20;56.30;;;;;;5014474;28;20379;-39
2021/01/11 07:19:36;;;;;;;5.40;2.80;;;15.20;56.30;;;;;;5014273;28;20033;-39
2021/01/11 07:22:04;;;;;;;4.22;2.45;;;15.30;56.30;;;;;;5013983;28;20041;-39
2021/01/11 07:24:40;;;;;;;2.78;2.33;;;15.30;56.20;;;;;;5013885;28;20030;-38
2021/01/11 07:27:06;;;;;;;6.30;2.55;;;15.30;56.20;;;;;;4996348;28;20037;-39
2021/01/11 07:29:32;;;;;;;2.95;2.40;;;15.40;56.10;;;;;;5013097;28;20046;-39
2021/01/11 07:31:58;;;;;;;2.45;2.25;;;15.40;56.00;;;;;;5013948;28;20076;-39
2021/01/11 07:34:24;;;;;;;3.20;2.33;;;15.40;55.80;;;;;;5013150;28;20042;-39
2021/01/11 07:36:52;;;;;;;3.00;2.47;;;15.40;55.70;;;;;;5012593;28;20160;-39
2021/01/11 07:39:23;;;;;;;3.13;2.63;;;15.50;55.80;;;;;;5012793;28;20097;-39
2021/01/11 07:41:51;;;;;;;4.38;2.67;;;15.50;55.80;;;;;;5013746;28;20037;-39
2021/01/11 07:44:19;;;;;;;3.90;2.42;;;15.50;55.90;;;;;;5013489;28;20029;-39
2021/01/11 07:46:57;;;;;;;3.60;2.88;;;15.50;56.00;;;;;;5013485;28;20018;-39
2021/01/11 07:49:24;;;;;;;7.75;2.30;;;15.50;56.00;;;;;;4996099;28;20491;-39
2021/01/11 07:51:50;;;;;;;3.72;2.70;;;15.60;56.10;;;;;;5013426;28;20026;-39
2021/01/11 07:54:18;;;;;;;4.10;2.33;;;15.60;55.90;;;;;;5013005;28;20517;-39
2021/01/11 07:56:52;;;;;;;3.88;2.80;;;15.60;55.80;;;;;;5012568;28;20045;-39
2021/01/11 07:59:19;;;;;;;3.17;2.47;;;15.70;55.90;;;;;;5013169;28;20038;-39
2021/01/11 08:01:54;;;;;;;7.45;3.10;;;15.70;55.90;;;;;;5013020;28;20025;-38
2021/01/11 08:04:20;;;;;;;4.03;2.65;;;15.70;55.80;;;;;;5013977;28;20135;-38
2021/01/11 08:06:51;;;;;;;4.30;2.67;;;15.60;55.80;;;;;;5013240;28;20464;-38
2021/01/11 08:09:19;;;;;;;4.15;3.03;;;15.60;55.80;;;;;;5012401;28;20038;-38
2021/01/11 08:11:45;;;;;;;2.92;2.30;;;15.60;55.90;;;;;;5013024;28;20025;-38
2021/01/11 08:14:11;;;;;;;4.50;2.90;;;15.60;56.00;;;;;;5011813;28;20093;-38
2021/01/11 08:16:39;;;;;;;3.42;2.67;;;15.60;56.10;;;;;;5011827;28;20076;-38
2021/01/11 08:19:12;;;;;;;4.80;2.47;;;15.60;56.10;;;;;;5011242;28;20072;-39
2021/01/11 08:21:40;;;;;;;3.17;2.60;;;15.60;56.20;;;;;;5012650;28;20061;-38
2021/01/11 08:24:09;;;;;;;3.88;2.17;;;15.50;56.00;;;;;;5011211;28;20428;-38
2021/01/11 08:26:50;;;;;;;2.78;2.50;;;15.60;56.10;;;;;;5012887;28;20530;-38
2021/01/11 08:29:16;;;;;;;3.67;2.08;;;15.50;56.00;;;;;;5012574;28;20032;-38
2021/01/11 08:31:44;;;;;;;4.22;2.10;;;15.50;55.90;;;;;;5012591;28;20546;-38
2021/01/11 08:34:10;;;;;;;3.65;2.03;;;15.50;55.90;;;;;;5012687;28;20030;-38
2021/01/11 08:36:36;;;;;;;3.95;2.50;;;15.50;55.90;;;;;;5012708;28;20044;-38
2021/01/11 08:39:11;;;;;;;4.05;2.13;;;15.50;55.80;;;;;;5012811;28;20076;-38
2021/01/11 08:41:40;;;;;;;3.42;2.40;;;15.50;55.80;;;;;;5012904;28;20026;-38
2021/01/11 08:44:05;;;;;;;2.78;2.47;;;15.50;55.80;;;;;;5012745;28;20383;-38
2021/01/11 08:46:50;;;;;;;2.58;2.38;;;15.50;55.80;;;;;;5012572;28;20034;-38
2021/01/11 08:49:16;;;;;;;2.75;2.28;;;15.50;55.80;;;;;;5012543;28;20120;-38
2021/01/11 08:51:42;;;;;;;2.00;1.85;;;15.60;56.00;;;;;;5012418;28;20548;-38
2021/01/11 08:54:08;;;;;;;2.50;2.15;;;15.60;56.00;;;;;;5012305;28;20041;-38
2021/01/11 08:56:35;;;;;;;3.60;2.30;;;15.60;56.00;;;;;;5012285;28;20072;-38
2021/01/11 08:59:01;;;;;;;4.00;2.40;;;15.60;56.00;;;;;;5012263;28;20025;-38
2021/01/11 09:01:34;;;;;;;5.15;2.20;;;15.60;55.90;;;;;;5011693;28;20022;-38
2021/01/11 09:03:59;;;;;;;3.78;2.38;;;15.70;56.00;;;;;;5012867;28;20526;-38
2021/01/11 09:06:45;;;;;;;5.78;2.28;;;15.60;56.10;;;;;;5012152;28;20034;-38
2021/01/11 09:09:18;;;;;;;4.63;1.88;;;15.60;56.10;;;;;;5012324;28;20044;-38
2021/01/11 09:11:47;;;;;;;4.22;2.28;;;15.60;56.10;;;;;;5012350;28;20026;-38
2021/01/11 09:14:18;;;;;;;3.63;2.28;;;15.50;55.90;;;;;;5012302;28;20456;-38
2021/01/11 09:16:44;;;;;;;;;;;15.50;56.00;;;;;;5012561;28;20040;-38
2021/01/11 09:19:15;;;;;;;4.70;2.35;;;15.50;56.00;;;;;;5011944;28;19964;-38
2021/01/11 09:21:42;;;;;;;2.42;1.80;;;15.40;55.90;;;;;;5011289;28;20547;-38
2021/01/11 09:24:09;;;;;;;3.42;1.85;;;15.40;55.90;;;;;;5011208;28;20030;-38
2021/01/11 09:26:36;;;;;;;2.30;1.73;;;15.40;56.00;;;;;;5010949;28;20025;-38
2021/01/11 09:29:02;;;;;;;2.65;1.83;;;15.40;56.00;;;;;;5011728;28;20029;-38
2021/01/11 09:31:28;;;;;;;1.77;1.52;;;15.40;56.00;;;;;;5011594;28;20025;-38
2021/01/11 09:33:53;;;;;;;2.17;1.60;;;15.40;56.20;;;;;;5011204;28;20042;-38
2021/01/11 09:36:20;;;;;;;1.90;1.70;;;15.40;56.30;;;;;;5010982;28;20026;-39
2021/01/11 09:38:47;;;;;;;7.65;1.92;;;15.50;56.20;;;;;;5011653;28;20026;-38
2021/01/11 09:41:14;;;;;;;2.10;1.90;;;15.50;56.20;;;;;;5011761;28;20043;-38
2021/01/11 09:43:40;;;;;;;2.97;1.75;;;15.50;56.30;;;;;;5011978;28;20022;-38
2021/01/11 09:46:06;;;;;;;6.05;2.15;;;15.50;56.40;;;;;;5011777;28;20037;-38
2021/01/11 09:48:31;;;;;;;1.95;1.55;;;15.50;56.40;;;;;;5011629;28;20481;-38
2021/01/11 09:50:57;;;;;;;3.70;1.75;;;15.60;56.40;;;;;;5010521;28;20107;-38
2021/01/11 09:53:22;;;;;;;2.38;1.30;;;15.60;56.50;;;;;;5010075;28;20033;-38
2021/01/11 09:55:48;;;;;;;5.72;2.40;;;15.60;56.60;;;;;;5011173;28;20024;-38
2021/01/11 09:58:15;;;;;;;2.67;1.80;;;15.60;56.50;;;;;;5009301;28;20029;-38
2021/01/11 10:00:41;;;;;;;2.63;1.48;;;15.60;56.40;;;;;;5009932;28;20041;-39
2021/01/11 10:03:06;;;;;;;4.63;1.95;;;15.60;56.40;;;;;;5010058;28;20037;-38
2021/01/11 10:05:32;;;;;;;3.58;1.65;;;15.70;56.50;;;;;;5009965;28;20190;-39
2021/01/11 10:07:58;;;;;;;18.55;2.03;;;15.70;56.40;;;;;;5010057;28;20376;-39
2021/01/11 10:10:23;;;;;;;7.10;1.80;;;15.70;56.90;;;;;;5010741;28;20117;-39
2021/01/11 10:12:49;;;;;;;2.50;1.55;;;15.70;57.40;;;;;;5012859;28;20026;-39
2021/01/11 10:15:15;;;;;;;2.88;2.05;;;15.70;57.90;;;;;;5015232;28;20034;-39
2021/01/11 10:17:40;;;;;;;5.72;2.42;;;15.70;58.10;;;;;;5015311;28;20033;-39
2021/01/11 10:20:10;;;;;;;3.15;1.77;;;15.80;58.40;;;;;;5015049;28;20037;-40
2021/01/11 10:22:36;;;;;;;3.35;1.60;;;15.80;58.50;;;;;;5015225;28;20026;-39
2021/01/11 10:25:02;;;;;;;3.92;2.00;;;15.80;58.70;;;;;;5015031;28;20036;-39
2021/01/11 10:27:28;;;;;;;2.53;1.70;;;15.80;58.80;;;;;;5014040;28;20044;-39
2021/01/11 10:29:53;;;;;;;4.85;1.90;;;15.90;58.70;;;;;;5013257;28;20638;-39
2021/01/11 10:32:19;;;;;;;3.72;2.25;;;16.00;59.40;;;;;;5014135;28;20362;-39
2021/01/11 10:34:45;;;;;;;9.85;2.60;;;16.10;59.10;;;;;;5014329;28;20479;-39
2021/01/11 10:37:10;;;;;;;5.28;1.83;;;16.00;59.20;;;;;;5014412;28;20033;-39
2021/01/11 10:39:36;;;;;;;3.15;1.80;;;16.10;59.60;;;;;;5014273;28;20030;-39
2021/01/11 10:42:02;;;;;;;3.13;1.90;;;16.20;60.20;;;;;;5014387;28;20116;-39
2021/01/11 10:44:28;;;;;;;3.35;1.70;;;16.10;60.40;;;;;;5013473;28;20048;-39
2021/01/11 10:46:56;;;;;;;2.67;2.00;;;16.10;61.90;;;;;;5014400;28;20093;-39
2021/01/11 10:49:22;;;;;;;2.17;1.63;;;16.10;62.70;;;;;;5013492;28;20033;-39
2021/01/11 10:51:48;;;;;;;3.45;2.00;;;16.10;63.70;;;;;;5013323;28;20439;-39
2021/01/11 10:54:15;;;;;;;2.67;1.70;;;16.10;63.90;;;;;;5014568;28;20045;-39
2021/01/11 10:56:42;;;;;;;2.75;1.92;;;16.10;64.00;;;;;;5014648;28;20033;-39
2021/01/11 10:59:08;;;;;;;2.83;1.63;;;16.20;64.20;;;;;;5013967;28;20029;-39
2021/01/11 11:01:34;;;;;;;3.35;1.95;;;16.20;64.00;;;;;;5013731;28;20029;-39
2021/01/11 11:03:59;;;;;;;3.20;1.60;;;16.20;64.90;;;;;;5014691;28;20050;-39
2021/01/11 11:06:25;;;;;;;2.55;1.65;;;16.20;65.20;;;;;;5014338;28;20038;-39
2021/01/11 11:08:52;;;;;;;2.90;1.42;;;16.30;65.00;;;;;;4997036;28;20429;-39
2021/01/11 11:11:17;;;;;;;1.90;1.70;;;16.30;65.60;;;;;;5014336;28;20113;-39
2021/01/11 11:13:43;;;;;;;1.67;1.58;;;16.30;65.60;;;;;;5014301;28;20125;-38
2021/01/11 11:16:11;;;;;;;1.95;1.80;;;16.30;65.80;;;;;;5014277;28;20120;-39
2021/01/11 11:18:37;;;;;;;1.50;1.40;;;16.40;65.70;;;;;;4996621;28;20033;-39
2021/01/11 11:21:07;;;;;;;3.08;1.63;;;16.40;65.80;;;;;;5014098;28;20022;-39
2021/01/11 11:23:33;;;;;;;3.65;1.95;;;16.40;65.90;;;;;;5013581;28;20476;-39
2021/01/11 11:25:59;;;;;;;2.22;1.33;;;16.40;66.30;;;;;;5014220;28;20018;-39
2021/01/11 11:28:30;;;;;;;1.90;1.50;;;16.40;66.30;;;;;;5013561;28;20018;-39
2021/01/11 11:30:57;;;;;;;2.30;1.50;;;16.50;66.20;;;;;;5013527;28;20018;-39
2021/01/11 11:33:23;;;;;;;1.38;1.27;;;16.50;66.30;;;;;;5013411;28;20053;-38
2021/01/11 11:35:49;;;;;;;1.60;1.30;;;16.50;66.20;;;;;;5012391;28;20026;-39
2021/01/11 11:38:14;;;;;;;1.63;1.52;;;16.50;66.30;;;;;;5013423;28;20029;-39
2021/01/11 11:40:41;;;;;;;1.33;1.23;;;16.50;66.10;;;;;;5013431;28;20128;-39
2021/01/11 11:43:07;;;;;;;1.50;1.40;;;16.50;66.10;;;;;;5012670;28;20365;-39
2021/01/11 11:45:33;;;;;;;2.97;1.80;;;16.50;66.20;;;;;;5011307;28;20105;-39
2021/01/11 11:47:59;;;;;;;1.48;1.38;;;16.50;65.80;;;;;;5013185;28;20037;-39
2021/01/11 11:50:25;;;;;;;1.60;1.42;;;16.50;65.90;;;;;;5013099;28;20392;-39
2021/01/11 11:52:51;;;;;;;2.45;1.58;;;16.50;65.60;;;;;;5013298;28;20030;-39
2021/01/11 11:55:16;;;;;;;2.45;1.60;;;16.50;65.60;;;;;;5012686;28;20034;-39
2021/01/11 11:57:44;;;;;;;1.80;1.70;;;16.50;65.20;;;;;;5012017;28;20038;-39
2021/01/11 12:00:16;;;;;;;1.67;1.40;;;16.60;65.40;;;;;;5012149;28;20069;-39
2021/01/11 12:02:43;;;;;;;1.48;1.38;;;16.50;65.30;;;;;;5012182;28;20060;-38
2021/01/11 12:05:10;;;;;;;1.48;1.38;;;16.50;65.00;;;;;;5012224;28;20389;-38
2021/01/11 12:07:35;;;;;;;1.38;1.27;;;16.50;65.00;;;;;;5011474;28;20084;-39
2021/01/11 12:10:01;;;;;;;1.50;1.40;;;16.50;65.10;;;;;;5011907;28;20034;-38
2021/01/11 12:12:26;;;;;;;3.15;1.95;;;16.50;65.20;;;;;;5013139;28;20038;-38
2021/01/11 12:14:52;;;;;;;1.40;1.30;;;16.40;65.20;;;;;;5011487;28;20042;-38
2021/01/11 12:17:17;;;;;;;2.13;1.35;;;16.40;65.10;;;;;;5011967;28;20026;-39
2021/01/11 12:19:43;;;;;;;1.25;1.15;;;16.40;65.80;;;;;;5012868;28;20045;-40
2021/01/11 12:22:11;;;;;;;1.30;1.20;;;16.40;65.10;;;;;;5012051;28;20030;-38
2021/01/11 12:24:39;;;;;;;2.47;1.33;;;16.40;65.00;;;;;;5012911;28;20384;-38
2021/01/11 12:27:06;;;;;;;1.40;1.30;;;16.40;65.00;;;;;;5013133;28;20071;-38
2021/01/11 12:29:32;;;;;;;1.50;1.40;;;16.40;64.90;;;;;;5012592;28;20439;-38
2021/01/11 12:32:02;;;;;;;1.27;1.10;;;16.40;64.90;;;;;;5012895;28;20030;-38
2021/01/11 12:34:28;;;;;;;;;;;16.50;64.80;;;;;;5012844;28;20041;-38
2021/01/11 12:36:53;;;;;;;1.77;1.40;;;16.40;64.90;;;;;;4994531;28;19960;-38
2021/01/11 12:39:19;;;;;;;1.70;1.20;;;16.50;64.80;;;;;;5012759;28;20030;-38
2021/01/11 12:41:57;;;;;;;1.23;1.08;;;16.50;64.80;;;;;;5012556;28;20014;-38
2021/01/11 12:44:23;;;;;;;1.20;1.10;;;16.50;64.70;;;;;;5012176;28;20041;-38
2021/01/11 12:47:06;;;;;;;1.25;1.02;;;16.50;64.50;;;;;;5012463;28;20025;-38
2021/01/11 12:49:32;;;;;;;1.73;1.23;;;16.60;64.40;;;;;;5012079;28;20190;-38
2021/01/11 12:51:58;;;;;;;1.65;0.95;;;16.60;65.00;;;;;;5011872;28;20080;-37
2021/01/11 12:54:24;;;;;;;5.28;1.27;;;16.60;64.10;;;;;;5012540;28;20046;-37
2021/01/11 12:56:49;;;;;;;1.30;1.17;;;16.70;64.00;;;;;;5011835;28;20025;-38